createdAt,value
2019-04-16T00:00:12.100Z,42.50
2019-04-16T00:06:14.465Z,42.30
2019-04-16T00:12:17.296Z,42.30
2019-04-16T00:18:20.049Z,42.30
2019-04-16T00:24:22.809Z,42.30
2019-04-16T00:30:25.691Z,42.30
2019-04-16T00:36:28.610Z,42.30
2019-04-16T00:42:31.342Z,42.30
2019-04-16T00:48:34.369Z,42.30
2019-04-16T00:54:39.354Z,42.30
2019-04-16T01:00:41.929Z,42.20
2019-04-16T01:06:45.010Z,42.30
2019-04-16T01:12:47.857Z,42.30
2019-04-16T01:18:50.625Z,42.30
2019-04-16T01:24:53.769Z,42.20
2019-04-16T01:30:56.503Z,42.30
2019-04-16T01:36:59.223Z,42.20
2019-04-16T01:43:02.002Z,42.20
2019-04-16T01:49:09.708Z,42.20
2019-04-16T01:55:09.280Z,41.70
2019-04-16T02:01:12.393Z,42.20
2019-04-16T02:07:15.253Z,42.60
2019-04-16T02:13:18.001Z,42.20
2019-04-16T02:19:21.088Z,42.10
2019-04-16T02:25:23.826Z,42.00
2019-04-16T02:31:26.567Z,42.00
2019-04-16T02:37:35.445Z,42.10
2019-04-16T02:43:39.431Z,42.10
2019-04-16T02:49:38.821Z,42.20
2019-04-16T02:55:43.877Z,42.00
2019-04-16T03:01:46.365Z,42.00
2019-04-16T03:07:49.101Z,42.00
2019-04-16T03:13:52.833Z,42.00
2019-04-16T03:19:56.341Z,42.00
2019-04-16T03:25:59.085Z,42.00
2019-04-16T03:32:01.903Z,42.00
2019-04-16T03:38:06.196Z,42.00
2019-04-16T03:44:09.824Z,41.90
2019-04-16T03:50:12.753Z,41.80
2019-04-16T03:56:15.647Z,41.70
2019-04-16T04:02:21.961Z,41.90
2019-04-16T04:08:22.877Z,41.80
2019-04-16T04:14:25.615Z,41.80
2019-04-16T04:20:28.418Z,41.80
2019-04-16T04:26:31.477Z,41.80
2019-04-16T04:32:35.395Z,41.80
2019-04-16T04:38:38.675Z,41.70
2019-04-16T04:44:41.433Z,41.80
2019-04-16T04:50:44.548Z,41.20
2019-04-16T04:56:47.299Z,41.70
2019-04-16T05:02:50.080Z,41.50
2019-04-16T05:08:52.810Z,41.50
2019-04-16T05:14:58.642Z,41.50
2019-04-16T05:21:00.073Z,41.80
2019-04-16T05:27:05.473Z,41.50
2019-04-16T05:33:07.267Z,41.70
2019-04-16T05:39:10.007Z,41.50
2019-04-16T05:45:13.342Z,41.50
2019-04-16T05:51:16.600Z,41.40
2019-04-16T05:57:19.368Z,41.50
2019-04-16T06:03:22.463Z,41.50
2019-04-16T06:09:25.647Z,41.40
2019-04-16T06:15:28.371Z,41.40
2019-04-16T06:21:31.095Z,41.50
2019-04-16T06:27:33.913Z,41.50
2019-04-16T06:33:36.656Z,41.50
2019-04-16T06:39:39.637Z,41.50
2019-04-16T06:45:42.709Z,41.40
2019-04-16T06:51:45.494Z,41.50
2019-04-16T06:57:48.231Z,41.40
2019-04-16T07:03:50.969Z,41.40
2019-04-16T07:09:56.772Z,41.50
2019-04-16T07:15:58.207Z,41.40
2019-04-16T07:22:00.962Z,41.40
2019-04-16T07:28:04.081Z,41.40
2019-04-16T07:34:06.813Z,41.20
2019-04-16T07:40:10.530Z,41.10
2019-04-16T07:46:13.581Z,41.00
2019-04-16T07:52:16.370Z,40.90
2019-04-16T07:58:19.196Z,40.90
2019-04-16T08:04:28.726Z,40.70
2019-04-16T08:10:26.984Z,40.70
2019-04-16T08:16:29.741Z,40.80
2019-04-16T08:22:32.505Z,40.60
2019-04-16T08:28:35.252Z,40.50
2019-04-16T08:34:38.002Z,40.50
2019-04-16T08:40:40.742Z,40.30
2019-04-16T08:46:43.623Z,40.40
2019-04-16T08:52:46.364Z,40.40
2019-04-16T08:58:49.441Z,40.30
2019-04-16T09:04:52.448Z,40.40
2019-04-16T09:10:55.469Z,40.40
2019-04-16T09:16:58.195Z,40.40
2019-04-16T09:23:00.936Z,40.30
2019-04-16T09:29:08.399Z,40.30
2019-04-16T09:35:10.791Z,40.40
2019-04-16T09:41:12.868Z,40.40
2019-04-16T09:47:15.743Z,40.30
2019-04-16T09:53:32.239Z,40.40
2019-04-16T09:59:23.433Z,40.40
2019-04-16T10:05:29.130Z,40.30
2019-04-16T10:11:32.735Z,40.20
2019-04-16T10:17:35.209Z,40.40
2019-04-16T10:23:37.985Z,40.50
2019-04-16T10:29:40.817Z,40.30
2019-04-16T10:35:43.578Z,40.40
2019-04-16T10:41:46.319Z,40.40
2019-04-16T10:47:49.343Z,40.40
2019-04-16T10:53:52.118Z,40.40
2019-04-16T10:59:54.900Z,40.40
2019-04-16T11:05:57.857Z,40.40
2019-04-16T11:12:04.873Z,40.50
2019-04-16T11:18:05.252Z,40.50
2019-04-16T11:24:08.102Z,40.60
2019-04-16T11:30:10.850Z,40.60
2019-04-16T11:36:19.521Z,40.60
2019-04-16T11:42:18.055Z,40.80
2019-04-16T11:48:20.865Z,40.80
2019-04-16T11:54:23.969Z,40.80
2019-04-16T12:00:26.770Z,40.90
2019-04-16T12:06:29.512Z,40.80
2019-04-16T12:12:32.390Z,40.80
2019-04-16T12:18:35.178Z,40.80
2019-04-16T12:24:37.964Z,40.70
2019-04-16T12:30:40.701Z,40.60
2019-04-16T12:36:43.464Z,40.60
2019-04-16T12:42:46.265Z,40.90
2019-04-16T12:48:49.063Z,40.70
2019-04-16T12:54:51.823Z,40.70
2019-04-16T13:00:54.561Z,40.80
2019-04-16T13:06:57.616Z,40.80
2019-04-16T13:13:00.536Z,40.80
2019-04-16T13:19:03.527Z,40.20
2019-04-16T13:25:07.444Z,40.30
2019-04-16T13:31:10.240Z,40.20
2019-04-16T13:37:13.289Z,40.20
2019-04-16T13:43:16.040Z,40.30
2019-04-16T13:49:18.772Z,40.30
2019-04-16T13:55:21.527Z,40.40
2019-04-16T14:01:24.259Z,40.10
2019-04-16T14:07:26.992Z,40.40
2019-04-16T14:13:29.724Z,40.40
2019-04-16T14:19:34.734Z,40.00
2019-04-16T14:25:37.007Z,40.00
2019-04-16T14:31:39.736Z,40.10
2019-04-16T14:37:42.724Z,41.00
2019-04-16T14:43:45.550Z,40.50
2019-04-16T14:49:50.872Z,40.50
2019-04-16T14:56:00.614Z,40.90
2019-04-16T15:01:59.179Z,40.50
2019-04-16T15:08:02.094Z,40.60
2019-04-16T15:14:04.907Z,40.70
2019-04-16T15:20:07.637Z,41.30
2019-04-16T15:26:10.376Z,40.70
2019-04-16T15:32:13.112Z,40.50
2019-04-16T15:38:15.866Z,40.60
2019-04-16T15:44:22.484Z,40.70
2019-04-16T15:50:23.336Z,40.80
2019-04-16T15:56:26.344Z,40.80
2019-04-16T16:02:29.084Z,40.80
2019-04-16T16:08:35.395Z,40.80
2019-04-16T16:14:38.706Z,40.80
2019-04-16T16:20:40.787Z,40.80
2019-04-16T16:26:43.515Z,40.90
2019-04-16T16:32:46.275Z,41.00
2019-04-16T16:38:49.257Z,41.10
2019-04-16T16:44:52.112Z,41.10
2019-04-16T16:50:55.268Z,41.10
2019-04-16T16:57:01.591Z,41.20
2019-04-16T17:03:08.647Z,41.30
2019-04-16T17:09:07.339Z,41.30
2019-04-16T17:15:10.078Z,41.30
2019-04-16T17:21:12.853Z,41.30
2019-04-16T17:27:15.579Z,41.50
2019-04-16T17:33:18.320Z,41.40
2019-04-16T17:39:21.054Z,41.50
2019-04-16T17:45:24.850Z,41.50
2019-04-16T17:51:27.864Z,41.60
2019-04-16T17:57:30.597Z,41.60
2019-04-16T18:03:37.026Z,41.60
2019-04-16T18:09:37.865Z,41.50
2019-04-16T18:15:42.783Z,41.40
2019-04-16T18:21:45.051Z,41.60
2019-04-16T18:27:47.786Z,41.80
2019-04-16T18:33:50.514Z,41.70
2019-04-16T18:39:53.256Z,41.70
2019-04-16T18:45:56.810Z,41.70
2019-04-16T18:52:00.228Z,41.80
2019-04-16T18:58:02.988Z,41.80
2019-04-16T19:04:05.796Z,41.70
2019-04-16T19:10:08.852Z,41.40
2019-04-16T19:16:11.580Z,41.10
2019-04-16T19:22:14.350Z,41.10
2019-04-16T19:28:20.020Z,41.00
2019-04-16T19:34:21.519Z,41.10
2019-04-16T19:40:24.247Z,41.30
2019-04-16T19:46:26.992Z,41.40
2019-04-16T19:52:29.779Z,41.50
2019-04-16T19:58:32.516Z,41.40
2019-04-16T20:04:35.247Z,41.60
2019-04-16T20:10:38.063Z,41.40
2019-04-16T20:16:40.888Z,41.40
2019-04-16T20:22:43.620Z,41.50
2019-04-16T20:28:48.455Z,41.50
2019-04-16T20:34:50.815Z,41.60
2019-04-16T20:40:55.432Z,41.50
2019-04-16T20:47:02.322Z,41.70
2019-04-16T20:53:06.212Z,41.60
2019-04-16T20:59:07.175Z,41.50
2019-04-16T21:05:21.865Z,41.60
2019-04-16T21:11:14.359Z,41.70
2019-04-16T21:17:17.089Z,41.70
2019-04-16T21:23:19.816Z,41.70
2019-04-16T21:29:22.889Z,41.60
2019-04-16T21:35:28.637Z,41.60
2019-04-16T21:41:30.122Z,41.70
2019-04-16T21:47:33.154Z,41.60
2019-04-16T21:53:35.897Z,41.60
2019-04-16T21:59:39.064Z,41.60
2019-04-16T22:05:41.821Z,41.60
2019-04-16T22:11:44.586Z,41.50
2019-04-16T22:17:47.620Z,41.50
2019-04-16T22:23:51.117Z,41.50
2019-04-16T22:29:53.947Z,41.50
2019-04-16T22:35:57.190Z,41.50
2019-04-16T22:42:00.021Z,41.50
2019-04-16T22:48:02.817Z,41.50
2019-04-16T22:54:05.548Z,41.50
2019-04-16T23:00:11.996Z,41.70
2019-04-16T23:06:12.757Z,41.60
2019-04-16T23:12:15.483Z,41.50
2019-04-16T23:18:18.366Z,41.60
2019-04-16T23:24:23.501Z,41.50
2019-04-16T23:30:25.767Z,41.50
2019-04-16T23:36:28.504Z,41.50
2019-04-16T23:42:31.247Z,41.60
2019-04-16T23:48:33.988Z,41.60
2019-04-16T23:54:36.724Z,41.70
